Terminal Aerodrome Forecast
Issued by NWS

Home | Current Version | Previous Version | Text Only | Print | Product List | Glossary On
Versions: 1 2 3 4 5 6 7 8 9 10 11 12 13 14
000
FTUS43 KIND 030520
TAFHUF
TAF
KHUF 030520Z 0306/0406 21008KT P6SM SCT050
     FM031300 28007KT P6SM SCT030
     FM031600 31007KT P6SM SCT050=

USA.gov is the U.S. government's official web portal to all federal, state and local government web resources and services.